Time;durP1;ratioP1;P1;durP2;ratioP2;P2;SDS_P1;SDS_P2;PMS_P1;PMS_P2;Temp;Humidity;BMP_temperature;BMP_pressure;BME280_temperature;BME280_humidity;BME280_pressure;Samples;Min_cycle;Max_cycle;Signal;HPM_P1;HPM_P2
2022/05/28 00:01:38;;;;;;;13.32;2.42;;;12.20;99.80;;;;;;5056194;28;20059;-33
2022/05/28 00:04:05;;;;;;;15.98;1.90;;;12.20;99.80;;;;;;5070289;28;20135;-32
2022/05/28 00:06:33;;;;;;;10.55;1.65;;;12.20;99.80;;;;;;5071061;28;20159;-33
2022/05/28 00:08:59;;;;;;;9.90;1.35;;;12.20;99.80;;;;;;5062223;28;20055;-33
2022/05/28 00:11:27;;;;;;;11.38;2.03;;;12.20;99.80;;;;;;5057661;28;20045;-33
2022/05/28 00:13:55;;;;;;;10.35;1.35;;;12.20;99.90;;;;;;5052111;28;20126;-33
2022/05/28 00:16:22;;;;;;;14.02;2.03;;;12.20;99.90;;;;;;5068579;28;20056;-33
2022/05/28 00:18:49;;;;;;;9.18;1.65;;;12.20;99.90;;;;;;5072059;28;20048;-33
2022/05/28 00:21:16;;;;;;;11.40;1.92;;;12.20;99.90;;;;;;5066149;28;20044;-33
2022/05/28 00:23:44;;;;;;;8.40;1.60;;;12.20;99.90;;;;;;5064406;28;20672;-33
2022/05/28 00:26:10;;;;;;;13.63;1.98;;;12.20;99.90;;;;;;5062913;28;20051;-34
2022/05/28 00:28:37;;;;;;;10.85;1.90;;;12.20;99.90;;;;;;5069912;28;20057;-33
2022/05/28 00:31:05;;;;;;;12.07;1.50;;;12.20;99.90;;;;;;5053055;28;20425;-33
2022/05/28 00:33:32;;;;;;;10.82;1.42;;;12.20;99.90;;;;;;5059310;28;20169;-33
2022/05/28 00:35:59;;;;;;;10.35;1.90;;;12.10;99.90;;;;;;5070959;28;20400;-32
2022/05/28 00:38:25;;;;;;;9.10;1.70;;;12.10;99.90;;;;;;5056080;28;20455;-33
2022/05/28 00:40:53;;;;;;;10.32;1.60;;;12.00;99.90;;;;;;5060244;28;20059;-33
2022/05/28 00:43:20;;;;;;;16.00;1.67;;;11.90;99.90;;;;;;5059589;28;20051;-33
2022/05/28 00:45:48;;;;;;;10.32;1.92;;;11.90;99.90;;;;;;5067410;28;20049;-33
2022/05/28 00:48:18;;;;;;;6.65;1.15;;;11.80;99.90;;;;;;5068024;28;20051;-34
2022/05/28 00:50:44;;;;;;;6.50;1.42;;;11.80;99.90;;;;;;5070836;28;20055;-33
2022/05/28 00:53:11;;;;;;;9.23;1.40;;;11.70;99.90;;;;;;5066121;28;20123;-34
2022/05/28 00:55:38;;;;;;;8.40;1.70;;;11.70;99.90;;;;;;5072714;28;20495;-34
2022/05/28 00:58:06;;;;;;;10.93;1.55;;;11.70;99.90;;;;;;5071949;28;20171;-32
2022/05/28 01:00:33;;;;;;;8.90;1.75;;;11.60;99.90;;;;;;5072217;28;20052;-34
2022/05/28 01:03:03;;;;;;;12.57;1.77;;;11.60;99.90;;;;;;5062431;28;20060;-33
2022/05/28 01:05:35;;;;;;;10.93;1.45;;;11.50;99.90;;;;;;5052333;28;20424;-34
2022/05/28 01:08:09;;;;;;;9.68;1.50;;;11.50;99.90;;;;;;5057660;28;20127;-34
2022/05/28 01:10:40;;;;;;;9.57;1.48;;;11.50;99.90;;;;;;5064502;28;20135;-34
2022/05/28 01:13:08;;;;;;;15.60;2.35;;;11.50;99.90;;;;;;5061854;28;20049;-34
2022/05/28 01:15:36;;;;;;;10.88;1.88;;;11.40;99.90;;;;;;5074698;28;20056;-34
2022/05/28 01:18:07;;;;;;;9.90;1.52;;;11.30;99.90;;;;;;5071236;28;20060;-34
2022/05/28 01:20:39;;;;;;;9.10;1.30;;;11.30;99.90;;;;;;5076742;28;20044;-34
2022/05/28 01:23:17;;;;;;;9.95;1.58;;;11.30;99.90;;;;;;5073767;28;20055;-34
2022/05/28 01:25:56;;;;;;;9.38;1.63;;;11.20;99.90;;;;;;5065385;28;20079;-34
2022/05/28 01:28:25;;;;;;;13.63;1.85;;;11.20;99.90;;;;;;5069200;28;20066;-34
2022/05/28 01:30:51;;;;;;;8.60;1.45;;;11.20;99.90;;;;;;5074423;28;20063;-34
2022/05/28 01:33:18;;;;;;;13.60;2.17;;;11.10;99.90;;;;;;5074244;28;20049;-34
2022/05/28 01:35:45;;;;;;;11.18;1.45;;;11.10;99.90;;;;;;5073197;28;20044;-38
2022/05/28 01:38:12;;;;;;;10.73;1.77;;;11.10;99.90;;;;;;5069186;28;20060;-34
2022/05/28 01:40:39;;;;;;;11.20;1.77;;;11.10;99.90;;;;;;5057521;28;20102;-34
2022/05/28 01:43:07;;;;;;;10.95;2.20;;;11.00;99.90;;;;;;5071479;28;20059;-34
2022/05/28 01:45:35;;;;;;;15.32;2.08;;;11.00;99.90;;;;;;5075996;28;20412;-34
2022/05/28 01:48:04;;;;;;;9.43;1.90;;;11.00;99.90;;;;;;5064624;28;20071;-34
2022/05/28 01:50:32;;;;;;;10.15;1.67;;;11.00;99.90;;;;;;5074245;28;20052;-34
2022/05/28 01:53:00;;;;;;;12.88;1.67;;;10.90;99.90;;;;;;5073646;28;20056;-34
2022/05/28 01:55:27;;;;;;;15.40;1.95;;;10.90;99.90;;;;;;5058215;28;20055;-34
2022/05/28 01:57:54;;;;;;;11.50;1.77;;;10.90;99.90;;;;;;5056086;28;20061;-34
2022/05/28 02:00:21;;;;;;;11.18;1.77;;;10.80;99.90;;;;;;5061873;28;20088;-34
2022/05/28 02:02:49;;;;;;;8.75;1.73;;;10.80;99.90;;;;;;5064393;28;20049;-34
2022/05/28 02:05:15;;;;;;;10.32;1.92;;;10.80;99.90;;;;;;5073050;28;20404;-34
2022/05/28 02:07:47;;;;;;;12.85;1.98;;;10.80;99.90;;;;;;5072020;28;20049;-34
2022/05/28 02:10:16;;;;;;;11.10;1.80;;;10.80;99.90;;;;;;5058812;28;20048;-34
2022/05/28 02:12:48;;;;;;;10.70;2.22;;;10.80;99.90;;;;;;5061000;28;20055;-34
2022/05/28 02:15:25;;;;;;;15.90;1.90;;;10.70;99.90;;;;;;5069254;28;20040;-34
2022/05/28 02:17:54;;;;;;;12.73;2.22;;;10.70;99.90;;;;;;5062498;28;20075;-34
2022/05/28 02:20:24;;;;;;;9.75;1.65;;;10.60;99.90;;;;;;5076897;28;20070;-34
2022/05/28 02:22:53;;;;;;;9.82;2.10;;;10.60;99.90;;;;;;5071953;28;20491;-34
2022/05/28 02:25:21;;;;;;;10.98;1.70;;;10.60;99.90;;;;;;5075626;28;20055;-34
2022/05/28 02:27:48;;;;;;;8.77;1.50;;;10.50;99.90;;;;;;5074218;28;20048;-34
2022/05/28 02:30:15;;;;;;;10.32;1.80;;;10.50;99.90;;;;;;5068433;28;20455;-34
2022/05/28 02:32:41;;;;;;;15.57;2.15;;;10.50;99.90;;;;;;5073102;28;20049;-34
2022/05/28 02:35:10;;;;;;;7.85;1.70;;;10.50;99.90;;;;;;5063060;28;20060;-33
2022/05/28 02:37:37;;;;;;;7.85;1.55;;;10.40;99.90;;;;;;5066434;28;20135;-33
2022/05/28 02:40:04;;;;;;;10.70;2.03;;;10.40;99.90;;;;;;5053788;28;20128;-34
2022/05/28 02:42:32;;;;;;;10.70;1.60;;;10.40;99.90;;;;;;5053776;28;20102;-34
2022/05/28 02:44:59;;;;;;;15.95;2.55;;;10.40;99.90;;;;;;5061477;28;20488;-34
2022/05/28 02:47:26;;;;;;;16.02;2.20;;;10.40;99.90;;;;;;5061928;28;20060;-34
2022/05/28 02:49:53;;;;;;;12.18;2.00;;;10.30;99.90;;;;;;5071877;28;20431;-34
2022/05/28 02:52:21;;;;;;;17.05;2.22;;;10.30;99.90;;;;;;5055740;28;20176;-34
2022/05/28 02:54:47;;;;;;;15.20;2.13;;;10.30;99.90;;;;;;5062124;28;20413;-34
2022/05/28 02:57:14;;;;;;;14.55;2.00;;;10.20;99.90;;;;;;5064415;28;20056;-34
2022/05/28 02:59:41;;;;;;;13.73;2.05;;;10.20;99.90;;;;;;5069669;28;20449;-34
2022/05/28 03:02:07;;;;;;;13.63;1.70;;;10.20;99.90;;;;;;5054411;28;20063;-33
2022/05/28 03:04:34;;;;;;;10.95;1.73;;;10.20;99.90;;;;;;5062872;28;20057;-34
2022/05/28 03:07:01;;;;;;;13.23;2.15;;;10.20;99.90;;;;;;5059894;28;20348;-34
2022/05/28 03:09:29;;;;;;;12.68;1.60;;;10.10;99.90;;;;;;5069101;28;20106;-34
2022/05/28 03:11:55;;;;;;;9.50;1.80;;;10.10;99.90;;;;;;5067015;28;20403;-33
2022/05/28 03:14:22;;;;;;;13.32;1.80;;;10.10;99.90;;;;;;5072601;28;20048;-34
2022/05/28 03:16:49;;;;;;;15.88;2.20;;;10.10;99.90;;;;;;5070524;28;20057;-34
2022/05/28 03:19:15;;;;;;;12.30;1.80;;;10.00;99.90;;;;;;5065434;28;20115;-33
2022/05/28 03:21:42;;;;;;;9.70;1.75;;;10.00;99.90;;;;;;5071865;28;20045;-34
2022/05/28 03:24:09;;;;;;;16.20;1.95;;;10.00;99.90;;;;;;5071097;28;20051;-34
2022/05/28 03:26:37;;;;;;;14.23;2.22;;;10.00;99.90;;;;;;5062292;28;20048;-34
2022/05/28 03:29:04;;;;;;;18.50;2.80;;;10.00;99.90;;;;;;5086780;28;20050;-33
2022/05/28 03:31:30;;;;;;;15.27;2.03;;;10.00;99.90;;;;;;5092569;28;20056;-34
2022/05/28 03:33:57;;;;;;;10.85;1.58;;;10.00;99.90;;;;;;5092062;28;20054;-33
2022/05/28 03:36:24;;;;;;;8.77;1.75;;;9.90;99.90;;;;;;5092547;28;20048;-34
2022/05/28 03:38:51;;;;;;;11.65;1.67;;;9.90;99.90;;;;;;5075510;28;20048;-34
2022/05/28 03:41:18;;;;;;;15.23;2.08;;;9.90;99.90;;;;;;5072732;28;20059;-34
2022/05/28 03:43:46;;;;;;;20.98;2.17;;;9.90;99.90;;;;;;5072772;28;20132;-34
2022/05/28 03:46:24;;;;;;;11.43;1.73;;;9.90;99.90;;;;;;5062013;28;20049;-34
2022/05/28 03:48:51;;;;;;;13.50;2.25;;;9.90;99.90;;;;;;5051763;28;20527;-33
2022/05/28 03:51:17;;;;;;;9.25;2.15;;;9.80;99.90;;;;;;5067249;28;20052;-33
2022/05/28 03:53:44;;;;;;;15.43;2.28;;;9.90;99.90;;;;;;5070664;28;20050;-34
2022/05/28 03:56:11;;;;;;;12.27;2.15;;;9.80;99.90;;;;;;5076061;28;20044;-34
2022/05/28 03:58:37;;;;;;;16.63;2.25;;;9.80;99.90;;;;;;5079556;28;20153;-34
2022/05/28 04:01:05;;;;;;;15.02;1.98;;;9.80;99.90;;;;;;5058744;28;20564;-34
2022/05/28 04:03:34;;;;;;;12.80;2.10;;;9.80;99.90;;;;;;5063603;28;20071;-34
2022/05/28 04:06:00;;;;;;;10.07;2.00;;;9.80;99.90;;;;;;5055692;28;20053;-34
2022/05/28 04:08:27;;;;;;;15.07;2.17;;;9.80;99.90;;;;;;5069533;28;20058;-34
2022/05/28 04:10:54;;;;;;;10.65;2.17;;;9.80;99.90;;;;;;5072341;28;20052;-34
2022/05/28 04:13:20;;;;;;;13.38;2.13;;;9.80;99.90;;;;;;5070828;28;20047;-34
2022/05/28 04:15:48;;;;;;;12.10;1.98;;;9.80;99.90;;;;;;5069463;28;20570;-34
2022/05/28 04:18:16;;;;;;;13.60;2.28;;;9.80;99.90;;;;;;5055676;28;20048;-34
2022/05/28 04:20:43;;;;;;;17.95;2.80;;;9.80;99.90;;;;;;5060570;28;20063;-34
2022/05/28 04:23:10;;;;;;;16.52;2.40;;;9.80;99.90;;;;;;5058051;28;20075;-34
2022/05/28 04:25:36;;;;;;;13.18;2.03;;;9.90;99.90;;;;;;5053224;28;20041;-34
2022/05/28 04:28:03;;;;;;;15.13;1.95;;;9.90;99.90;;;;;;5064287;28;20087;-34
2022/05/28 04:30:30;;;;;;;18.13;2.30;;;9.90;99.90;;;;;;5052242;28;20051;-34
2022/05/28 04:32:57;;;;;;;15.43;2.38;;;10.00;99.90;;;;;;5051057;28;20049;-34
2022/05/28 04:35:25;;;;;;;18.60;2.97;;;10.00;99.90;;;;;;5051899;28;20049;-34
2022/05/28 04:37:51;;;;;;;22.42;2.75;;;10.00;99.90;;;;;;5068976;28;20059;-34
2022/05/28 04:40:18;;;;;;;16.67;2.47;;;10.00;99.90;;;;;;5059677;28;20125;-34
2022/05/28 04:42:45;;;;;;;17.13;2.63;;;10.00;99.90;;;;;;5071562;28;20044;-34
2022/05/28 04:45:11;;;;;;;13.25;2.20;;;10.10;99.90;;;;;;5062406;28;20466;-33
2022/05/28 04:47:38;;;;;;;13.77;2.22;;;10.10;99.90;;;;;;5074779;28;20502;-33
2022/05/28 04:50:06;;;;;;;16.45;2.38;;;10.10;99.90;;;;;;5061981;28;20131;-34
2022/05/28 04:52:34;;;;;;;16.17;2.33;;;10.20;99.90;;;;;;5060230;28;20053;-34
2022/05/28 04:55:01;;;;;;;16.55;2.45;;;10.20;99.90;;;;;;5083445;28;20403;-34
2022/05/28 04:57:27;;;;;;;13.02;2.30;;;10.20;99.90;;;;;;5055928;28;20061;-34
2022/05/28 04:59:54;;;;;;;17.83;2.63;;;10.20;99.90;;;;;;5055674;28;20048;-34
2022/05/28 05:02:21;;;;;;;23.67;3.05;;;10.30;99.90;;;;;;5058063;28;20057;-34
2022/05/28 05:04:47;;;;;;;15.07;2.67;;;10.20;99.90;;;;;;5069559;28;20048;-34
2022/05/28 05:07:14;;;;;;;21.63;2.80;;;10.30;99.90;;;;;;5070696;28;20049;-34
2022/05/28 05:09:42;;;;;;;19.70;2.78;;;10.30;99.90;;;;;;5064437;28;20057;-34
2022/05/28 05:12:09;;;;;;;13.75;2.38;;;10.50;99.90;;;;;;5074889;28;20059;-34
2022/05/28 05:14:36;;;;;;;18.38;2.40;;;10.40;99.90;;;;;;5073315;28;20052;-34
2022/05/28 05:17:03;;;;;;;19.92;2.53;;;10.40;99.90;;;;;;5069468;28;20045;-34
2022/05/28 05:19:30;;;;;;;15.23;2.30;;;10.40;99.90;;;;;;5070937;28;20067;-34
2022/05/28 05:21:56;;;;;;;17.02;2.63;;;10.40;99.90;;;;;;5072636;28;20131;-34
2022/05/28 05:24:23;;;;;;;20.45;2.95;;;10.50;99.90;;;;;;5074563;28;20456;-34
2022/05/28 05:26:51;;;;;;;21.95;2.80;;;10.50;99.90;;;;;;5067320;28;20495;-34
2022/05/28 05:29:18;;;;;;;23.95;2.90;;;10.60;99.90;;;;;;5059298;28;20495;-34
2022/05/28 05:31:44;;;;;;;17.95;2.78;;;10.70;99.90;;;;;;5064575;28;20583;-34
2022/05/28 05:34:11;;;;;;;24.65;3.22;;;10.70;99.90;;;;;;5055058;28;20049;-34
2022/05/28 05:36:38;;;;;;;20.27;2.88;;;10.80;99.90;;;;;;5071267;28;20049;-34
2022/05/28 05:39:04;;;;;;;16.35;2.38;;;10.80;99.90;;;;;;5070228;28;20061;-34
2022/05/28 05:41:31;;;;;;;19.60;3.00;;;10.80;99.90;;;;;;5057768;28;20075;-34
2022/05/28 05:43:59;;;;;;;23.88;2.88;;;10.90;99.90;;;;;;5064134;28;20127;-34
2022/05/28 05:46:26;;;;;;;21.70;2.83;;;10.90;99.90;;;;;;5072120;28;20484;-34
2022/05/28 05:48:53;;;;;;;23.13;3.33;;;11.00;99.90;;;;;;5065065;28;20481;-34
2022/05/28 05:51:19;;;;;;;15.32;2.33;;;11.00;99.90;;;;;;5063024;28;20045;-34
2022/05/28 05:53:46;;;;;;;14.27;2.72;;;11.00;99.90;;;;;;5054556;28;20049;-34
2022/05/28 05:56:13;;;;;;;17.02;2.78;;;11.10;99.90;;;;;;5060719;28;20049;-34
2022/05/28 05:58:39;;;;;;;17.70;2.83;;;11.20;99.90;;;;;;5056382;28;20059;-34
2022/05/28 06:01:08;;;;;;;19.15;2.90;;;11.20;99.90;;;;;;5074641;28;20143;-34
2022/05/28 06:03:35;;;;;;;15.88;2.63;;;11.30;99.90;;;;;;5063450;28;20489;-34
2022/05/28 06:06:04;;;;;;;19.00;2.50;;;11.40;99.90;;;;;;5060223;28;20044;-34
2022/05/28 06:08:31;;;;;;;11.40;2.30;;;11.40;99.90;;;;;;5073088;28;20049;-34
2022/05/28 06:10:58;;;;;;;14.38;2.33;;;11.40;99.90;;;;;;5054418;28;20055;-34
2022/05/28 06:13:24;;;;;;;15.68;2.60;;;11.40;99.90;;;;;;5056660;28;20074;-34
2022/05/28 06:15:51;;;;;;;17.27;2.22;;;11.50;99.90;;;;;;5068305;28;20135;-34
2022/05/28 06:18:19;;;;;;;13.43;2.08;;;11.50;99.90;;;;;;5070610;28;20127;-33
2022/05/28 06:20:46;;;;;;;10.95;1.80;;;11.60;99.90;;;;;;5062710;28;20053;-34
2022/05/28 06:23:12;;;;;;;9.40;2.25;;;11.60;99.90;;;;;;5065604;28;20049;-34
2022/05/28 06:25:39;;;;;;;10.27;1.75;;;11.60;99.90;;;;;;5055301;28;20057;-34
2022/05/28 06:28:06;;;;;;;14.60;2.47;;;11.70;99.90;;;;;;5070339;28;20072;-34
2022/05/28 06:30:33;;;;;;;7.55;2.00;;;11.70;99.90;;;;;;5067451;28;20408;-34
2022/05/28 06:33:00;;;;;;;14.48;2.50;;;11.70;99.90;;;;;;5070105;28;20075;-34
2022/05/28 06:35:29;;;;;;;6.88;1.60;;;11.80;99.90;;;;;;5067543;28;20052;-34
2022/05/28 06:37:56;;;;;;;9.50;2.25;;;11.90;99.90;;;;;;5062471;28;20067;-34
2022/05/28 06:40:23;;;;;;;11.68;2.47;;;12.00;99.90;;;;;;5064834;28;20044;-34
2022/05/28 06:42:51;;;;;;;13.85;2.20;;;12.20;99.90;;;;;;5065896;28;20105;-34
2022/05/28 06:45:18;;;;;;;9.77;2.08;;;12.40;99.90;;;;;;5053155;28;20132;-34
2022/05/28 06:47:45;;;;;;;21.15;2.35;;;12.60;99.90;;;;;;5072722;28;20063;-34
2022/05/28 06:52:59;;;;;;;19.70;3.10;;;12.80;99.90;;;;;;5052392;28;20057;-34
2022/05/28 06:55:26;;;;;;;16.75;2.85;;;12.90;99.90;;;;;;5052768;28;20409;-34
2022/05/28 06:57:53;;;;;;;12.80;2.40;;;13.00;99.90;;;;;;5049123;28;20144;-34
2022/05/28 07:00:20;;;;;;;16.73;2.47;;;13.20;99.90;;;;;;5064197;28;20051;-34
2022/05/28 07:02:47;;;;;;;16.10;2.85;;;13.30;99.90;;;;;;5063995;28;20040;-34
2022/05/28 07:05:14;;;;;;;18.58;3.05;;;13.30;99.90;;;;;;5076499;28;20119;-34
2022/05/28 07:07:41;;;;;;;24.35;3.22;;;13.30;99.90;;;;;;5060959;28;20045;-34
2022/05/28 07:10:10;;;;;;;25.05;3.17;;;13.30;99.90;;;;;;5058357;28;20056;-34
2022/05/28 07:12:37;;;;;;;17.25;2.60;;;13.30;99.90;;;;;;5062150;28;20049;-35
2022/05/28 07:15:04;;;;;;;16.67;2.85;;;13.20;99.90;;;;;;5060443;28;20414;-37
2022/05/28 07:17:30;;;;;;;18.85;3.30;;;13.10;99.90;;;;;;5068179;28;20054;-33
2022/05/28 07:19:57;;;;;;;14.25;3.00;;;13.10;99.90;;;;;;5056117;28;20071;-33
2022/05/28 07:22:24;;;;;;;15.88;2.35;;;12.90;99.90;;;;;;5052605;28;20083;-37
2022/05/28 07:24:51;;;;;;;15.10;2.90;;;12.80;99.90;;;;;;5057090;28;20057;-37
2022/05/28 07:27:19;;;;;;;14.65;2.83;;;12.80;99.90;;;;;;5066505;28;20404;-37
2022/05/28 07:29:45;;;;;;;16.02;3.25;;;12.80;99.90;;;;;;5059477;28;20049;-37
2022/05/28 07:32:12;;;;;;;20.45;3.10;;;12.80;99.90;;;;;;5062113;28;20464;-36
2022/05/28 07:34:39;;;;;;;12.52;2.60;;;12.70;99.90;;;;;;5072127;28;20044;-35
2022/05/28 07:37:05;;;;;;;10.77;2.40;;;12.50;99.90;;;;;;5070250;28;20044;-34
2022/05/28 07:39:32;;;;;;;9.65;2.33;;;12.40;99.90;;;;;;5058820;28;20050;-34
2022/05/28 07:41:59;;;;;;;13.77;3.00;;;12.40;99.90;;;;;;5072878;28;20481;-35
2022/05/28 07:44:27;;;;;;;12.85;2.35;;;12.40;99.90;;;;;;5070522;28;20071;-36
2022/05/28 07:46:54;;;;;;;10.70;2.33;;;12.40;99.90;;;;;;5071605;28;20125;-37
2022/05/28 07:49:20;;;;;;;11.57;2.50;;;12.40;99.90;;;;;;5061844;28;20505;-36
2022/05/28 07:51:47;;;;;;;9.13;2.40;;;12.30;99.90;;;;;;5090536;28;20059;-36
2022/05/28 07:54:16;;;;;;;13.88;2.85;;;12.40;99.90;;;;;;5078509;28;20061;-36
2022/05/28 07:56:42;;;;;;;12.40;2.28;;;12.50;99.90;;;;;;5051226;28;20178;-35
2022/05/28 07:59:09;;;;;;;12.88;2.58;;;12.60;99.90;;;;;;5073471;28;20120;-35
2022/05/28 08:01:39;;;;;;;15.98;2.70;;;12.90;99.90;;;;;;5077402;28;20048;-35
2022/05/28 08:04:06;;;;;;;14.35;2.65;;;13.10;99.90;;;;;;5065995;28;20118;-35
2022/05/28 08:06:32;;;;;;;14.15;2.75;;;13.40;99.90;;;;;;5054674;28;20469;-35
2022/05/28 08:08:59;;;;;;;19.45;2.65;;;13.60;99.90;;;;;;5067017;28;20070;-35
2022/05/28 08:11:26;;;;;;;19.92;3.25;;;13.90;99.90;;;;;;5066036;28;20052;-35
2022/05/28 08:13:53;;;;;;;18.05;3.00;;;14.10;99.90;;;;;;5056304;28;20059;-35
2022/05/28 08:16:20;;;;;;;14.90;3.05;;;14.20;99.90;;;;;;5077143;28;20051;-34
2022/05/28 08:18:48;;;;;;;21.25;4.10;;;14.30;99.90;;;;;;5072086;28;20055;-34
2022/05/28 08:23:59;;;;;;;18.63;3.47;;;14.30;99.90;;;;;;5065756;28;20044;-34
2022/05/28 08:26:25;;;;;;;24.45;3.72;;;14.40;99.90;;;;;;5062655;28;20140;-35
2022/05/28 08:28:52;;;;;;;15.57;3.17;;;14.40;99.90;;;;;;5062113;28;20052;-34
2022/05/28 08:31:19;;;;;;;20.48;3.25;;;14.40;99.90;;;;;;5083227;28;20489;-34
2022/05/28 08:33:47;;;;;;;16.35;3.35;;;14.40;99.90;;;;;;5072185;28;20389;-35
2022/05/28 08:36:14;;;;;;;19.58;2.75;;;14.40;99.90;;;;;;5069776;28;20047;-35
2022/05/28 08:38:41;;;;;;;18.90;3.13;;;14.40;99.90;;;;;;5066411;28;20047;-35
2022/05/28 08:41:09;;;;;;;20.23;3.45;;;14.50;99.90;;;;;;5070562;28;20119;-35
2022/05/28 08:43:37;;;;;;;21.58;3.10;;;14.50;99.70;;;;;;5065735;28;20126;-35
2022/05/28 08:46:03;;;;;;;17.65;2.88;;;14.60;99.40;;;;;;5068475;28;20052;-35
2022/05/28 08:48:34;;;;;;;13.07;2.90;;;14.70;99.80;;;;;;5070491;28;20056;-35
2022/05/28 08:51:05;;;;;;;19.25;3.38;;;14.70;99.10;;;;;;5072209;28;20186;-33
2022/05/28 08:53:34;;;;;;;19.25;3.47;;;14.70;98.50;;;;;;5069791;28;20270;-33
2022/05/28 08:56:01;;;;;;;20.05;2.97;;;14.70;98.80;;;;;;5071800;28;20059;-33
2022/05/28 08:58:28;;;;;;;20.23;3.33;;;14.70;98.30;;;;;;5052811;28;20114;-33
2022/05/28 09:00:57;;;;;;;22.88;3.47;;;14.70;98.30;;;;;;5051809;28;20060;-33
2022/05/28 09:03:25;;;;;;;24.83;3.78;;;14.70;98.00;;;;;;5055684;28;20052;-33
2022/05/28 09:05:55;;;;;;;18.00;3.15;;;14.80;98.10;;;;;;5067057;28;20411;-33
2022/05/28 09:08:27;;;;;;;17.42;3.20;;;15.10;98.20;;;;;;5067929;28;20091;-33
2022/05/28 09:10:53;;;;;;;17.50;3.75;;;15.40;98.00;;;;;;5070145;28;20499;-33
2022/05/28 09:13:23;;;;;;;21.15;3.47;;;15.60;97.60;;;;;;5068283;28;20054;-34
2022/05/28 09:15:50;;;;;;;19.88;3.17;;;15.70;97.00;;;;;;5065381;28;20049;-33
2022/05/28 09:18:17;;;;;;;16.83;3.08;;;15.60;96.50;;;;;;5067772;28;20052;-34
2022/05/28 09:20:44;;;;;;;20.25;3.53;;;15.60;96.30;;;;;;5060579;28;20126;-33
2022/05/28 09:23:10;;;;;;;14.05;2.90;;;15.40;95.60;;;;;;5068121;28;20048;-34
2022/05/28 09:25:43;;;;;;;16.35;2.75;;;15.20;95.30;;;;;;5059200;28;20072;-33
2022/05/28 09:28:17;;;;;;;25.33;4.18;;;15.00;95.40;;;;;;5065074;28;20055;-33
2022/05/28 09:30:46;;;;;;;20.75;3.65;;;15.10;95.50;;;;;;5071310;28;20382;-33
2022/05/28 09:33:52;;;;;;;15.13;2.97;;;15.30;95.80;;;;;;5071959;28;20075;-33
2022/05/28 09:36:22;;;;;;;15.57;3.30;;;15.60;94.90;;;;;;5068758;28;20443;-34
2022/05/28 09:39:01;;;;;;;18.98;3.63;;;15.60;93.80;;;;;;5073891;28;20142;-33
2022/05/28 09:41:39;;;;;;;13.98;2.78;;;15.60;93.40;;;;;;5082668;28;20084;-34
2022/05/28 09:44:10;;;;;;;16.02;2.83;;;15.90;93.60;;;;;;5072591;28;20388;-34
2022/05/28 09:46:37;;;;;;;14.07;2.97;;;16.20;93.70;;;;;;5066981;28;20065;-34
2022/05/28 09:49:05;;;;;;;14.32;2.75;;;16.30;93.10;;;;;;5073951;28;20374;-34
2022/05/28 09:51:33;;;;;;;16.73;2.83;;;16.20;92.60;;;;;;5071468;28;20062;-33
2022/05/28 09:54:18;;;;;;;16.38;2.75;;;16.10;92.00;;;;;;5076803;28;20462;-34
2022/05/28 09:56:51;;;;;;;15.98;2.95;;;16.10;92.20;;;;;;5071709;28;20145;-34
2022/05/28 09:59:23;;;;;;;18.65;2.95;;;16.30;92.10;;;;;;5079131;28;20452;-34
2022/05/28 10:01:53;;;;;;;15.50;3.38;;;16.40;91.70;;;;;;5074210;28;20048;-33
2022/05/28 10:04:32;;;;;;;13.25;2.38;;;16.40;91.50;;;;;;5061070;28;20063;-33
2022/05/28 10:07:01;;;;;;;20.98;3.17;;;16.30;91.50;;;;;;5066094;28;20152;-33
2022/05/28 10:09:28;;;;;;;13.40;3.03;;;16.10;92.20;;;;;;5064687;28;20044;-35
2022/05/28 10:11:57;;;;;;;14.27;3.03;;;15.90;92.10;;;;;;5062747;28;20049;-33
2022/05/28 10:14:25;;;;;;;20.45;3.35;;;15.90;92.00;;;;;;5061641;28;20075;-34
2022/05/28 10:16:55;;;;;;;15.23;2.72;;;15.80;92.10;;;;;;5066423;28;20051;-34
2022/05/28 10:19:25;;;;;;;19.23;2.90;;;15.80;91.90;;;;;;5071051;28;20053;-34
2022/05/28 10:21:52;;;;;;;16.70;3.05;;;16.00;91.60;;;;;;5067804;28;20059;-34
2022/05/28 10:24:21;;;;;;;12.43;2.72;;;16.20;91.70;;;;;;5076632;28;20050;-34
2022/05/28 10:26:50;;;;;;;14.63;2.67;;;16.50;90.90;;;;;;5073297;28;20090;-34
2022/05/28 10:29:19;;;;;;;17.20;3.22;;;16.80;90.90;;;;;;5071656;28;20072;-34
2022/05/28 10:31:47;;;;;;;14.10;2.45;;;17.00;90.90;;;;;;5063600;28;20051;-34
2022/05/28 10:34:27;;;;;;;13.90;2.65;;;17.20;89.30;;;;;;5064788;28;20064;-35
2022/05/28 10:36:54;;;;;;;14.68;2.53;;;17.20;86.30;;;;;;5069033;28;20489;-35
2022/05/28 10:39:21;;;;;;;13.50;2.88;;;17.00;87.10;;;;;;5058889;28;20044;-34
2022/05/28 10:41:50;;;;;;;18.50;3.40;;;16.90;88.60;;;;;;5073397;28;20056;-34
2022/05/28 10:44:17;;;;;;;21.40;3.83;;;16.80;89.60;;;;;;5067888;28;20072;-34
2022/05/28 10:46:56;;;;;;;17.70;3.08;;;16.60;90.30;;;;;;5062785;28;20084;-34
2022/05/28 10:49:29;;;;;;;16.52;2.65;;;16.50;90.40;;;;;;5070120;28;20403;-34
2022/05/28 10:51:58;;;;;;;11.60;2.60;;;16.40;90.80;;;;;;5068660;28;20052;-34
2022/05/28 10:54:46;;;;;;;14.27;2.88;;;16.30;91.20;;;;;;5074187;28;20044;-34
2022/05/28 10:57:27;;;;;;;15.43;3.10;;;16.30;90.70;;;;;;5067580;28;20052;-34
2022/05/28 11:00:02;;;;;;;17.10;2.95;;;16.10;91.50;;;;;;5070064;28;20040;-33
2022/05/28 11:03:08;;;;;;;13.90;2.50;;;16.10;92.20;;;;;;5068565;28;20048;-34
2022/05/28 11:05:53;;;;;;;12.70;2.78;;;16.10;91.90;;;;;;5055222;28;20053;-34
2022/05/28 11:08:24;;;;;;;14.98;3.25;;;16.10;92.40;;;;;;5050991;28;20070;-35
2022/05/28 11:11:04;;;;;;;15.40;3.05;;;16.30;92.50;;;;;;5059787;28;21358;-35
2022/05/28 11:13:43;;;;;;;12.57;2.85;;;16.60;92.70;;;;;;5063969;28;20056;-35
2022/05/28 11:16:25;;;;;;;19.77;2.80;;;16.70;91.10;;;;;;5056248;28;20401;-35
2022/05/28 11:19:01;;;;;;;13.63;2.88;;;16.70;90.90;;;;;;5056840;28;20059;-34
2022/05/28 11:21:46;;;;;;;14.75;2.85;;;16.70;91.00;;;;;;5048862;28;20688;-34
2022/05/28 11:24:33;;;;;;;12.95;2.60;;;16.70;88.60;;;;;;5049347;28;20048;-34
2022/05/28 11:27:03;;;;;;;15.75;2.40;;;16.60;90.00;;;;;;5067723;28;20056;-35
2022/05/28 11:29:39;;;;;;;12.25;2.42;;;16.50;90.10;;;;;;5063115;28;20404;-34
2022/05/28 11:32:08;;;;;;;16.67;2.63;;;16.60;89.70;;;;;;5073069;28;20097;-34
2022/05/28 11:34:43;;;;;;;16.75;3.10;;;16.60;90.10;;;;;;5070936;28;20056;-35
2022/05/28 11:37:27;;;;;;;13.30;2.65;;;16.80;90.10;;;;;;5056340;28;20049;-35
2022/05/28 11:39:57;;;;;;;13.55;2.65;;;16.90;88.40;;;;;;5064759;28;20127;-35
2022/05/28 11:42:29;;;;;;;21.58;2.65;;;16.90;88.20;;;;;;5065204;28;20052;-35
2022/05/28 11:44:57;;;;;;;12.57;2.40;;;17.00;87.40;;;;;;5060415;28;20048;-35
2022/05/28 11:47:32;;;;;;;11.65;2.20;;;17.10;88.10;;;;;;5066175;28;20049;-35
2022/05/28 11:52:49;;;;;;;13.60;2.45;;;17.70;85.70;;;;;;5068783;28;20822;-35
2022/05/28 11:55:19;;;;;;;13.52;2.30;;;18.00;86.10;;;;;;5066933;28;20058;-35
2022/05/28 11:57:49;;;;;;;12.40;2.70;;;18.30;83.20;;;;;;5060814;28;20052;-35
2022/05/28 12:00:16;;;;;;;10.95;2.00;;;18.40;82.70;;;;;;5060955;28;20084;-35
2022/05/28 12:02:46;;;;;;;12.35;2.58;;;18.50;81.20;;;;;;5068684;28;20063;-35
2022/05/28 12:05:18;;;;;;;13.15;2.25;;;18.40;81.60;;;;;;5069170;28;20421;-35
2022/05/28 12:07:45;;;;;;;14.50;2.90;;;18.20;82.80;;;;;;5059877;28;20052;-35
2022/05/28 12:10:32;;;;;;;9.68;2.33;;;18.10;83.20;;;;;;5065252;28;20396;-35
2022/05/28 12:13:00;;;;;;;18.50;3.30;;;18.00;82.40;;;;;;5069682;28;20491;-35
2022/05/28 12:15:28;;;;;;;11.65;2.60;;;17.90;82.60;;;;;;5066185;28;20049;-35
2022/05/28 12:17:57;;;;;;;13.80;2.60;;;17.80;82.50;;;;;;5066896;28;20051;-35
2022/05/28 12:20:29;;;;;;;17.92;2.70;;;17.80;82.70;;;;;;5060501;28;20048;-35
2022/05/28 12:23:00;;;;;;;11.70;2.63;;;17.80;82.60;;;;;;5053476;28;20060;-35
2022/05/28 12:25:32;;;;;;;12.30;2.72;;;17.70;81.50;;;;;;5062829;28;20088;-34
2022/05/28 12:28:08;;;;;;;14.23;2.60;;;17.60;82.40;;;;;;5060196;28;20048;-34
2022/05/28 12:30:48;;;;;;;16.50;3.15;;;17.70;80.60;;;;;;5064614;28;20061;-34
2022/05/28 12:33:26;;;;;;;10.88;2.53;;;17.70;80.40;;;;;;5059677;28;20056;-34
2022/05/28 12:35:59;;;;;;;10.98;2.33;;;17.70;80.40;;;;;;5064503;28;20053;-35
2022/05/28 12:38:41;;;;;;;12.35;2.80;;;17.80;80.00;;;;;;5063436;28;20045;-34
2022/05/28 12:41:16;;;;;;;11.15;2.80;;;17.90;79.80;;;;;;5054848;28;20052;-34
2022/05/28 12:43:45;;;;;;;13.23;2.25;;;18.00;80.20;;;;;;5064053;28;20085;-34
2022/05/28 12:46:13;;;;;;;10.50;1.83;;;18.20;79.90;;;;;;5052920;28;20382;-35
2022/05/28 12:48:40;;;;;;;13.63;2.47;;;18.30;79.40;;;;;;5061108;28;20049;-35
2022/05/28 12:51:22;;;;;;;11.88;2.42;;;18.40;79.50;;;;;;5063627;28;20052;-35
2022/05/28 12:53:51;;;;;;;8.75;2.00;;;18.50;76.20;;;;;;5058833;28;20463;-35
2022/05/28 12:56:27;;;;;;;13.75;2.53;;;18.30;77.40;;;;;;5065556;28;20057;-35